createdAt,value
2023-03-04T00:02:24.674Z,73.40
2023-03-04T00:04:53.022Z,73.50
2023-03-04T00:07:21.188Z,73.60
2023-03-04T00:09:53.720Z,73.65
2023-03-04T00:12:22.865Z,73.78
2023-03-04T00:14:51.639Z,73.84
2023-03-04T00:17:25.572Z,73.96
2023-03-04T00:19:55.267Z,73.91
2023-03-04T00:22:24.117Z,74.07
2023-03-04T00:24:54.961Z,74.27
2023-03-04T00:27:23.945Z,74.35
2023-03-04T00:29:52.191Z,74.55
2023-03-04T00:32:21.241Z,74.62
2023-03-04T00:34:49.828Z,74.77
2023-03-04T00:37:17.997Z,74.96
2023-03-04T00:39:46.853Z,74.97
2023-03-04T00:42:16.815Z,75.00
2023-03-04T00:44:46.605Z,75.30
2023-03-04T00:47:14.962Z,75.27
2023-03-04T00:49:43.436Z,75.33
2023-03-04T00:52:11.680Z,75.31
2023-03-04T00:54:43.033Z,75.42
2023-03-04T00:57:11.373Z,75.69
2023-03-04T00:59:40.897Z,75.78
2023-03-04T01:02:11.427Z,75.89
2023-03-04T01:04:42.047Z,76.04
2023-03-04T01:07:11.454Z,76.12
2023-03-04T01:09:45.436Z,76.07
2023-03-04T01:12:14.256Z,76.26
2023-03-04T01:14:43.151Z,76.35
2023-03-04T01:17:17.559Z,76.21
2023-03-04T01:19:45.873Z,76.33
2023-03-04T01:22:16.786Z,76.30
2023-03-04T01:24:47.248Z,76.10
2023-03-04T01:27:16.106Z,75.98
2023-03-04T01:29:45.414Z,76.20
2023-03-04T01:32:13.681Z,76.07
2023-03-04T01:34:43.966Z,76.10
2023-03-04T01:37:15.904Z,76.08
2023-03-04T01:39:44.963Z,76.16
2023-03-04T01:42:19.098Z,76.30
2023-03-04T01:44:48.402Z,76.14
2023-03-04T01:47:19.166Z,76.17
2023-03-04T01:49:49.455Z,76.16
2023-03-04T01:52:18.211Z,76.10
2023-03-04T01:54:46.413Z,76.34
2023-03-04T01:57:23.086Z,76.24
2023-03-04T02:00:32.455Z,76.20
2023-03-04T02:03:07.314Z,76.40
2023-03-04T02:05:36.472Z,76.25
2023-03-04T02:08:05.341Z,76.30
2023-03-04T02:10:37.994Z,76.40
2023-03-04T02:13:07.068Z,76.28
2023-03-04T02:15:35.726Z,76.40
2023-03-04T02:18:18.809Z,76.48
2023-03-04T02:21:13.733Z,76.61
2023-03-04T02:23:49.501Z,76.47
2023-03-04T02:26:21.870Z,76.59
2023-03-04T02:28:52.976Z,76.59
2023-03-04T02:31:28.849Z,76.50
2023-03-04T02:33:58.919Z,76.77
2023-03-04T02:36:29.044Z,76.78
2023-03-04T02:39:03.466Z,76.69
2023-03-04T02:41:32.306Z,76.97
2023-03-04T02:44:02.228Z,76.92
2023-03-04T02:46:31.394Z,77.33
2023-03-04T02:49:00.152Z,77.27
2023-03-04T02:51:29.738Z,77.26
2023-03-04T02:53:58.398Z,77.52
2023-03-04T02:56:26.928Z,77.76
2023-03-04T02:58:55.316Z,77.73
2023-03-04T03:01:29.893Z,77.85
2023-03-04T03:03:58.220Z,78.00
2023-03-04T03:06:27.125Z,78.15
2023-03-04T03:08:57.268Z,78.26
2023-03-04T03:11:26.784Z,78.57
2023-03-04T03:13:56.161Z,78.53
2023-03-04T03:16:30.593Z,78.54
2023-03-04T03:18:58.817Z,78.70
2023-03-04T03:21:27.041Z,78.79
2023-03-04T03:23:55.376Z,78.86
2023-03-04T03:26:23.598Z,79.01
2023-03-04T03:28:54.353Z,79.12
2023-03-04T03:31:23.380Z,79.21
2023-03-04T03:33:59.400Z,79.22
2023-03-04T03:36:28.692Z,79.53
2023-03-04T03:38:56.962Z,79.60
2023-03-04T03:41:25.203Z,79.69
2023-03-04T03:43:53.410Z,79.87
2023-03-04T03:46:21.670Z,79.95
2023-03-04T03:48:50.161Z,80.05
2023-03-04T03:51:26.530Z,80.14
2023-03-04T03:53:55.512Z,80.15
2023-03-04T03:56:23.911Z,80.28
2023-03-04T03:58:52.077Z,80.64
2023-03-04T04:01:20.306Z,80.61
2023-03-04T04:03:48.922Z,80.57
2023-03-04T04:06:17.454Z,80.62
2023-03-04T04:08:51.120Z,80.64
2023-03-04T04:11:19.279Z,80.79
2023-03-04T04:13:47.496Z,80.79
2023-03-04T04:16:16.447Z,80.91
2023-03-04T04:18:45.091Z,80.86
2023-03-04T04:21:17.576Z,81.14
2023-03-04T04:23:46.266Z,81.35
2023-03-04T04:26:19.157Z,81.21
2023-03-04T04:28:48.391Z,81.24
2023-03-04T04:31:16.888Z,81.24
2023-03-04T04:33:46.747Z,81.26
2023-03-04T04:36:15.541Z,81.23
2023-03-04T04:38:49.673Z,81.47
2023-03-04T04:41:23.154Z,81.46
2023-03-04T04:43:51.245Z,81.40
2023-03-04T04:46:20.148Z,81.41
2023-03-04T04:48:48.337Z,81.54
2023-03-04T04:51:16.568Z,81.45
2023-03-04T04:53:44.993Z,81.34
2023-03-04T04:56:16.674Z,81.45
2023-03-04T04:58:45.511Z,81.50
2023-03-04T05:01:14.416Z,81.57
2023-03-04T05:03:44.894Z,81.61
2023-03-04T05:06:13.463Z,81.46
2023-03-04T05:08:41.693Z,81.29
2023-03-04T05:11:10.068Z,81.41
2023-03-04T05:13:40.284Z,81.47
2023-03-04T05:16:09.768Z,81.57
2023-03-04T05:18:38.123Z,81.32
2023-03-04T05:21:10.007Z,81.23
2023-03-04T05:23:40.127Z,81.40
2023-03-04T05:26:08.951Z,81.34
2023-03-04T05:28:37.387Z,81.26
2023-03-04T05:31:05.827Z,81.24
2023-03-04T05:33:35.231Z,81.02
2023-03-04T05:36:04.776Z,81.07
2023-03-04T05:38:32.998Z,81.01
2023-03-04T05:41:03.519Z,80.89
2023-03-04T05:43:38.475Z,81.07
2023-03-04T05:46:07.096Z,80.83
2023-03-04T05:48:35.289Z,80.75
2023-03-04T05:51:03.861Z,80.59
2023-03-04T05:53:32.525Z,80.53
2023-03-04T05:56:06.436Z,80.39
2023-03-04T05:58:35.150Z,80.41
2023-03-04T06:01:03.707Z,80.19
2023-03-04T06:03:32.144Z,79.86
2023-03-04T06:06:00.296Z,79.80
2023-03-04T06:08:29.882Z,79.69
2023-03-04T06:10:59.220Z,79.75
2023-03-04T06:13:34.032Z,79.59
2023-03-04T06:16:03.507Z,79.36
2023-03-04T06:18:33.783Z,79.41
2023-03-04T06:21:08.663Z,78.97
2023-03-04T06:23:37.869Z,78.66
2023-03-04T06:26:09.442Z,78.68
2023-03-04T06:28:38.723Z,78.36
2023-03-04T06:31:06.952Z,78.23
2023-03-04T06:33:35.582Z,78.27
2023-03-04T06:36:04.780Z,77.97
2023-03-04T06:38:32.990Z,77.69
2023-03-04T06:41:09.068Z,77.62
2023-03-04T06:43:37.645Z,77.49
2023-03-04T06:46:07.367Z,77.39
2023-03-04T06:48:36.641Z,77.12
2023-03-04T06:51:09.350Z,76.95
2023-03-04T06:53:39.626Z,76.68
2023-03-04T06:56:16.467Z,76.66
2023-03-04T06:58:46.259Z,76.52
2023-03-04T07:01:21.810Z,76.33
2023-03-04T07:03:50.460Z,76.13
2023-03-04T07:06:20.931Z,75.94
2023-03-04T07:08:55.938Z,75.75
2023-03-04T07:11:25.467Z,75.69
2023-03-04T07:13:53.759Z,75.69
2023-03-04T07:16:23.315Z,75.85
2023-03-04T07:18:51.984Z,75.55
2023-03-04T07:21:26.024Z,75.53
2023-03-04T07:23:54.197Z,75.41
2023-03-04T07:26:22.462Z,75.28
2023-03-04T07:28:53.060Z,74.77
2023-03-04T07:31:21.448Z,74.59
2023-03-04T07:33:50.996Z,74.42
2023-03-04T07:36:20.146Z,74.21
2023-03-04T07:38:49.333Z,73.99
2023-03-04T07:41:18.225Z,73.55
2023-03-04T07:43:46.906Z,73.23
2023-03-04T07:46:15.252Z,73.06
2023-03-04T07:48:43.887Z,72.85
2023-03-04T07:51:15.162Z,72.81
2023-03-04T07:53:46.401Z,72.53
2023-03-04T07:56:16.781Z,72.42
2023-03-04T07:58:45.481Z,72.36
2023-03-04T08:01:16.000Z,71.95
2023-03-04T08:03:44.553Z,71.76
2023-03-04T08:06:14.537Z,71.54
2023-03-04T08:08:48.169Z,70.91
2023-03-04T08:11:20.992Z,70.58
2023-03-04T08:13:49.397Z,70.23
2023-03-04T08:16:19.133Z,69.94
2023-03-04T08:18:49.862Z,69.37
2023-03-04T08:21:19.569Z,68.94
2023-03-04T08:23:49.398Z,68.32
2023-03-04T08:26:20.723Z,67.88
2023-03-04T08:28:49.410Z,67.57
2023-03-04T08:31:19.998Z,67.00
2023-03-04T08:33:49.733Z,66.42
2023-03-04T08:36:17.950Z,66.09
2023-03-04T08:38:47.166Z,65.78
2023-03-04T08:41:16.975Z,64.96
2023-03-04T08:43:45.181Z,64.42
2023-03-04T08:46:13.425Z,64.24
2023-03-04T08:48:42.189Z,63.78
2023-03-04T08:51:13.328Z,63.56
2023-03-04T08:53:41.753Z,63.06
2023-03-04T08:56:10.593Z,62.47
2023-03-04T08:58:39.122Z,62.17
2023-03-04T09:01:10.031Z,62.14
2023-03-04T09:03:46.090Z,62.00
2023-03-04T09:06:15.818Z,61.79
2023-03-04T09:09:09.675Z,61.60
2023-03-04T09:11:41.981Z,61.68
2023-03-04T09:14:11.275Z,61.59
2023-03-04T09:16:40.068Z,61.00
2023-03-04T09:19:08.356Z,60.56
2023-03-04T09:21:38.417Z,60.59
2023-03-04T09:24:07.068Z,60.41
2023-03-04T09:26:35.494Z,60.22
2023-03-04T09:29:04.257Z,60.22
2023-03-04T09:31:34.274Z,60.03
2023-03-04T09:34:04.105Z,59.54
2023-03-04T09:36:33.365Z,59.32
2023-03-04T09:39:07.307Z,59.49
2023-03-04T09:41:50.409Z,58.89
2023-03-04T09:44:38.514Z,58.88
2023-03-04T09:47:11.678Z,58.67
2023-03-04T09:49:41.515Z,58.53
2023-03-04T09:52:28.169Z,58.34
2023-03-04T09:55:18.609Z,58.81
2023-03-04T09:57:53.364Z,58.85
2023-03-04T10:00:25.439Z,58.87
2023-03-04T10:03:06.327Z,58.80
2023-03-04T10:05:36.704Z,59.02
2023-03-04T10:08:28.582Z,59.24
2023-03-04T10:10:59.232Z,59.30
2023-03-04T10:13:40.823Z,59.12
2023-03-04T10:16:10.004Z,59.01
2023-03-04T10:18:41.360Z,59.32
2023-03-04T10:21:42.344Z,59.21
2023-03-04T10:24:15.325Z,58.92
2023-03-04T10:26:50.674Z,59.32
2023-03-04T10:29:21.225Z,59.25
2023-03-04T10:31:50.090Z,59.09
2023-03-04T10:34:18.961Z,59.12
2023-03-04T10:36:54.950Z,58.89
2023-03-04T10:39:39.657Z,58.72
2023-03-04T10:42:14.572Z,58.80
2023-03-04T10:44:56.959Z,58.80
2023-03-04T10:47:29.417Z,58.72
2023-03-04T10:50:00.971Z,58.83
2023-03-04T10:52:38.840Z,58.75
2023-03-04T10:55:17.160Z,58.54
2023-03-04T10:57:48.680Z,58.52
2023-03-04T11:00:32.233Z,58.19
2023-03-04T11:03:36.180Z,58.52
2023-03-04T11:06:24.646Z,58.38
2023-03-04T11:08:58.435Z,58.11
2023-03-04T11:11:48.411Z,57.67
2023-03-04T11:14:24.647Z,57.84
2023-03-04T11:17:01.061Z,57.45
2023-03-04T11:19:38.672Z,57.65
2023-03-04T11:22:07.691Z,57.58
2023-03-04T11:24:36.401Z,58.06
2023-03-04T11:27:50.518Z,57.63
2023-03-04T11:30:48.397Z,57.21
2023-03-04T11:33:29.535Z,56.64
2023-03-04T11:36:10.169Z,55.69
2023-03-04T11:38:47.985Z,55.31
2023-03-04T11:41:39.907Z,54.71
2023-03-04T11:44:09.025Z,54.93
2023-03-04T11:46:52.799Z,54.52
2023-03-04T11:50:00.553Z,54.08
2023-03-04T11:52:51.640Z,53.87
2023-03-04T11:55:22.604Z,53.60
2023-03-04T11:57:59.278Z,53.51
2023-03-04T12:00:36.091Z,53.35
2023-03-04T12:03:42.485Z,53.42
2023-03-04T12:06:38.948Z,53.48
2023-03-04T12:09:31.697Z,53.88
2023-03-04T12:12:06.255Z,53.85
2023-03-04T12:14:59.206Z,53.41
2023-03-04T12:17:39.574Z,53.33
2023-03-04T12:20:40.200Z,53.76
2023-03-04T12:23:22.469Z,53.88
2023-03-04T12:25:59.616Z,53.25
2023-03-04T12:28:53.149Z,53.80
2023-03-04T12:31:24.418Z,53.68
2023-03-04T12:34:14.450Z,53.64
2023-03-04T12:37:17.886Z,53.80
2023-03-04T12:40:20.638Z,53.91
2023-03-04T12:43:04.143Z,53.95
2023-03-04T12:45:43.893Z,54.24
2023-03-04T12:49:02.184Z,54.47
2023-03-04T12:51:39.604Z,54.36
2023-03-04T12:54:24.142Z,54.39
2023-03-04T12:56:55.868Z,55.15
2023-03-04T12:59:24.293Z,55.04
2023-03-04T13:02:14.548Z,55.09
2023-03-04T13:05:04.928Z,55.16
2023-03-04T13:07:50.859Z,55.48
2023-03-04T13:10:23.580Z,55.86
2023-03-04T13:12:54.537Z,55.75
2023-03-04T13:15:43.303Z,56.07
2023-03-04T13:18:36.063Z,56.40
2023-03-04T13:21:11.909Z,55.96
2023-03-04T13:23:40.821Z,56.39
2023-03-04T13:26:32.218Z,56.16
2023-03-04T13:29:18.963Z,56.02
2023-03-04T13:32:00.809Z,56.20
2023-03-04T13:34:49.251Z,56.19
2023-03-04T13:37:35.084Z,56.56
2023-03-04T13:40:47.674Z,56.39
2023-03-04T13:43:28.363Z,56.57
2023-03-04T13:45:56.699Z,57.00
2023-03-04T13:48:36.505Z,57.13
2023-03-04T13:51:04.852Z,57.12
2023-03-04T13:53:44.810Z,57.46
2023-03-04T13:56:29.320Z,57.51
2023-03-04T13:59:19.319Z,57.56
2023-03-04T14:01:47.994Z,57.70
2023-03-04T14:04:22.790Z,57.63
2023-03-04T14:06:52.715Z,57.67
2023-03-04T14:09:27.332Z,57.75
2023-03-04T14:11:57.314Z,57.92
2023-03-04T14:14:31.430Z,57.85
2023-03-04T14:17:05.096Z,57.51
2023-03-04T14:19:38.608Z,57.61
2023-03-04T14:22:23.895Z,57.61
2023-03-04T14:25:23.128Z,57.59
2023-03-04T14:28:04.558Z,57.93
2023-03-04T14:30:42.846Z,57.85
2023-03-04T14:33:18.342Z,57.91
2023-03-04T14:35:49.705Z,57.83
2023-03-04T14:38:23.929Z,57.78
2023-03-04T14:40:56.983Z,57.98
2023-03-04T14:43:26.565Z,58.10
2023-03-04T14:45:56.524Z,58.27
2023-03-04T14:48:31.022Z,58.39
2023-03-04T14:51:30.271Z,58.35
2023-03-04T14:54:32.140Z,58.60
2023-03-04T14:57:21.674Z,58.44
2023-03-04T14:59:50.175Z,58.43
2023-03-04T15:02:35.338Z,58.33
2023-03-04T15:05:31.389Z,58.34
2023-03-04T15:08:07.029Z,58.71
2023-03-04T15:10:37.171Z,58.67
2023-03-04T15:13:07.573Z,58.63
2023-03-04T15:15:40.648Z,58.62
2023-03-04T15:18:21.220Z,58.54
2023-03-04T15:21:05.881Z,58.45
2023-03-04T15:23:34.151Z,58.39
2023-03-04T15:26:04.710Z,58.78
2023-03-04T15:28:37.775Z,58.78
2023-03-04T15:31:06.140Z,58.99
2023-03-04T15:33:39.316Z,59.05
2023-03-04T15:36:11.133Z,59.16
2023-03-04T15:38:48.714Z,59.24
2023-03-04T15:41:25.891Z,59.17
2023-03-04T15:43:54.866Z,59.44
2023-03-04T15:46:23.473Z,59.67
2023-03-04T15:48:52.723Z,59.70
2023-03-04T15:51:22.385Z,59.70
2023-03-04T15:53:55.968Z,59.71
2023-03-04T15:56:32.104Z,59.79
2023-03-04T15:59:14.943Z,59.88
2023-03-04T16:01:51.157Z,59.84
2023-03-04T16:04:20.398Z,60.00
2023-03-04T16:06:49.587Z,59.95
2023-03-04T16:09:20.092Z,59.97
2023-03-04T16:11:49.058Z,60.02
2023-03-04T16:14:19.084Z,60.12
2023-03-04T16:16:48.143Z,60.26
2023-03-04T16:19:19.941Z,60.16
2023-03-04T16:21:50.971Z,60.16
2023-03-04T16:24:25.062Z,60.17
2023-03-04T16:26:54.214Z,60.07
2023-03-04T16:29:24.420Z,60.13
2023-03-04T16:31:54.401Z,60.25
2023-03-04T16:34:22.860Z,60.28
2023-03-04T16:36:51.551Z,60.46
2023-03-04T16:39:25.915Z,60.40
2023-03-04T16:41:58.483Z,60.43
2023-03-04T16:44:27.274Z,60.28
2023-03-04T16:47:02.772Z,60.14
2023-03-04T16:49:32.337Z,60.33
2023-03-04T16:52:01.006Z,60.42
2023-03-04T16:54:31.961Z,60.44
2023-03-04T16:57:00.882Z,60.55
2023-03-04T16:59:29.970Z,60.52
2023-03-04T17:01:58.631Z,60.52
2023-03-04T17:04:29.401Z,60.58
2023-03-04T17:06:59.082Z,60.53
2023-03-04T17:09:27.676Z,60.72
2023-03-04T17:11:59.555Z,60.87
2023-03-04T17:14:31.039Z,61.07
2023-03-04T17:17:00.673Z,60.99
2023-03-04T17:19:29.847Z,61.18
2023-03-04T17:21:59.489Z,61.29
2023-03-04T17:24:28.005Z,61.39
2023-03-04T17:26:58.339Z,61.50
2023-03-04T17:29:26.734Z,61.68
2023-03-04T17:31:54.966Z,61.83
2023-03-04T17:34:23.230Z,61.88
2023-03-04T17:36:51.573Z,62.02
2023-03-04T17:39:20.021Z,61.94
2023-03-04T17:41:51.366Z,61.98
2023-03-04T17:44:24.778Z,62.20
2023-03-04T17:46:53.105Z,62.19
2023-03-04T17:49:21.693Z,62.25
2023-03-04T17:51:50.135Z,62.59
2023-03-04T17:54:18.647Z,62.51
2023-03-04T17:56:47.015Z,62.72
2023-03-04T17:59:16.130Z,62.73
2023-03-04T18:01:47.813Z,62.90
2023-03-04T18:04:16.874Z,62.89
2023-03-04T18:06:46.497Z,62.97
2023-03-04T18:09:14.669Z,63.11
2023-03-04T18:11:43.384Z,63.11
2023-03-04T18:14:13.079Z,63.21
2023-03-04T18:16:44.388Z,63.39
2023-03-04T18:19:13.806Z,63.41
2023-03-04T18:21:44.487Z,63.53
2023-03-04T18:24:12.921Z,63.53
2023-03-04T18:26:41.105Z,63.79
2023-03-04T18:29:10.865Z,63.94
2023-03-04T18:31:39.786Z,63.78
2023-03-04T18:34:08.052Z,63.96
2023-03-04T18:36:36.601Z,64.05
2023-03-04T18:39:07.586Z,64.12
2023-03-04T18:41:36.466Z,64.26
2023-03-04T18:44:06.054Z,64.29
2023-03-04T18:46:55.621Z,64.33
2023-03-04T18:49:24.269Z,64.32
2023-03-04T18:51:52.482Z,64.34
2023-03-04T18:54:21.229Z,64.42
2023-03-04T18:56:55.814Z,64.41
2023-03-04T18:59:31.503Z,64.43
2023-03-04T19:02:01.761Z,64.48
2023-03-04T19:04:30.111Z,64.60
2023-03-04T19:07:00.442Z,64.72
2023-03-04T19:09:28.891Z,64.69
2023-03-04T19:11:57.112Z,64.81
2023-03-04T19:14:25.678Z,64.84
2023-03-04T19:16:54.646Z,64.87
2023-03-04T19:19:23.010Z,64.91
2023-03-04T19:21:51.263Z,65.06
2023-03-04T19:24:19.992Z,65.09
2023-03-04T19:26:54.782Z,65.20
2023-03-04T19:29:23.157Z,64.93
2023-03-04T19:31:51.335Z,65.09
2023-03-04T19:34:19.717Z,65.15
2023-03-04T19:36:48.143Z,65.12
2023-03-04T19:39:18.645Z,65.00
2023-03-04T19:41:47.614Z,65.10
2023-03-04T19:44:17.447Z,65.17
2023-03-04T19:46:46.163Z,65.39
2023-03-04T19:49:14.473Z,65.43
2023-03-04T19:51:43.250Z,65.37
2023-03-04T19:54:11.567Z,65.54
2023-03-04T19:56:40.754Z,65.70
2023-03-04T19:59:09.250Z,65.74
2023-03-04T20:01:40.741Z,65.65
2023-03-04T20:04:13.862Z,65.75
2023-03-04T20:06:45.942Z,65.81
2023-03-04T20:09:14.528Z,65.79
2023-03-04T20:11:56.683Z,65.85
2023-03-04T20:14:28.202Z,65.65
2023-03-04T20:17:01.582Z,65.87
2023-03-04T20:19:30.432Z,65.97
2023-03-04T20:21:58.810Z,65.85
2023-03-04T20:24:27.555Z,66.11
2023-03-04T20:26:55.836Z,66.24
2023-03-04T20:29:26.926Z,66.38
2023-03-04T20:31:55.102Z,66.27
2023-03-04T20:34:25.606Z,66.37
2023-03-04T20:36:54.130Z,66.31
2023-03-04T20:39:29.182Z,66.47
2023-03-04T20:41:58.733Z,66.53
2023-03-04T20:44:31.650Z,66.57
2023-03-04T20:47:01.908Z,66.47
2023-03-04T20:49:30.580Z,66.77
2023-03-04T20:52:06.429Z,66.73
2023-03-04T20:54:36.086Z,66.80
2023-03-04T20:57:08.104Z,67.00
2023-03-04T20:59:38.394Z,67.35
2023-03-04T21:02:14.573Z,78.10
2023-03-04T21:04:44.060Z,83.65
2023-03-04T21:07:12.388Z,84.17
2023-03-04T21:09:44.841Z,84.97
2023-03-04T21:12:14.613Z,84.64
2023-03-04T21:14:45.471Z,83.68
2023-03-04T21:17:14.310Z,82.36
2023-03-04T21:19:43.614Z,81.44
2023-03-04T21:22:16.569Z,80.59
2023-03-04T21:24:52.438Z,79.83
2023-03-04T21:27:22.273Z,78.53
2023-03-04T21:29:50.640Z,77.99
2023-03-04T21:32:25.793Z,77.20
2023-03-04T21:34:54.987Z,76.25
2023-03-04T21:37:25.160Z,75.60
2023-03-04T21:39:55.075Z,75.24
2023-03-04T21:42:23.753Z,74.36
2023-03-04T21:44:57.387Z,73.70
2023-03-04T21:47:26.606Z,72.35
2023-03-04T21:49:54.846Z,71.92
2023-03-04T21:52:23.101Z,71.13
2023-03-04T21:54:51.319Z,70.90
2023-03-04T21:57:19.733Z,70.27
2023-03-04T21:59:48.489Z,69.21
2023-03-04T22:02:21.345Z,67.91
2023-03-04T22:04:50.205Z,66.57
2023-03-04T22:07:19.150Z,65.94
2023-03-04T22:09:47.936Z,65.81
2023-03-04T22:12:19.707Z,64.68
2023-03-04T22:14:48.217Z,64.27
2023-03-04T22:17:16.609Z,64.06
2023-03-04T22:19:45.170Z,63.69
2023-03-04T22:22:13.396Z,63.36
2023-03-04T22:24:42.693Z,62.91
2023-03-04T22:27:10.888Z,62.65
2023-03-04T22:29:42.612Z,62.14
2023-03-04T22:32:10.987Z,61.83
2023-03-04T22:34:40.529Z,61.49
2023-03-04T22:37:09.115Z,61.34
2023-03-04T22:39:37.314Z,60.93
2023-03-04T22:42:05.745Z,60.65
2023-03-04T22:44:34.678Z,60.58
2023-03-04T22:47:04.269Z,60.37
2023-03-04T22:49:33.473Z,60.31
2023-03-04T22:52:07.424Z,60.28
2023-03-04T22:54:35.600Z,60.50
2023-03-04T22:57:03.853Z,60.88
2023-03-04T22:59:32.174Z,61.06
2023-03-04T23:02:04.955Z,61.09
2023-03-04T23:04:33.630Z,61.01
2023-03-04T23:07:02.032Z,60.62
2023-03-04T23:09:30.680Z,60.33
2023-03-04T23:11:58.877Z,60.39
2023-03-04T23:14:27.275Z,59.75
2023-03-04T23:16:56.306Z,59.26
2023-03-04T23:19:26.051Z,58.60
2023-03-04T23:21:57.297Z,57.78
2023-03-04T23:24:26.832Z,57.47
2023-03-04T23:26:55.121Z,56.96
2023-03-04T23:29:23.328Z,56.57
2023-03-04T23:31:51.870Z,56.36
2023-03-04T23:34:26.232Z,55.60
2023-03-04T23:36:54.455Z,55.56
2023-03-04T23:39:22.835Z,55.61
2023-03-04T23:41:51.136Z,55.12
2023-03-04T23:44:19.638Z,55.05
2023-03-04T23:46:47.844Z,54.95
2023-03-04T23:49:18.027Z,55.15
2023-03-04T23:51:46.404Z,55.33
2023-03-04T23:54:14.800Z,54.78
2023-03-04T23:56:43.433Z,53.95
2023-03-04T23:59:12.501Z,53.44
